.
WxDataArchive / Data Records for 2015-10-28
2015-10-27 October 2015 2015-10-29

Data Records for Wednesday, 28 October 2015

Time	Temp	Chill	HIndex	Humid	Dewpt	 Wind 	HiWind	WindDir	Rain 	Barom
-----	----	-----	------	-----	-----	------	------	-------	-----	-----
00:00	50.2	50.2	50.2	95	48.8	5	12	90	0.00	29.883 
00:05	50.2	50.2	50.2	95	48.8	4	7	112	0.00	29.883 
00:10	50.2	50.2	50.2	95	48.8	4	10	90	0.01	29.883 
00:15	50.1	50.1	50.1	95	48.7	5	10	90	0.01	29.866 
00:20	50.1	50.1	50.1	95	48.7	3	10	90	0.01	29.866 
00:25	50.1	50.1	50.1	95	48.7	3	13	90	0.01	29.866 
00:30	50.1	50.1	50.1	95	48.7	3	6	90	0.02	29.858 
00:35	50.1	50.1	50.1	95	48.7	3	6	90	0.02	29.858 
00:40	49.9	48.8	49.9	95	48.5	4	9	90	0.02	29.858 
00:45	49.9	48.8	49.9	95	48.5	4	9	90	0.01	29.833 
00:50	49.9	49.9	49.9	95	48.5	2	9	90	0.01	29.833 
00:55	49.9	49.9	49.9	95	48.5	3	6	112	0.00	29.833 
01:00	50.1	50.1	50.1	95	48.7	3	6	90	0.01	29.823 
01:05	50.1	50.1	50.1	95	48.7	2	7	90	0.01	29.823 
01:10	50.1	50.1	50.1	95	48.7	3	9	112	0.01	29.823 
01:15	50.2	50.2	50.2	95	48.8	2	6	112	0.02	29.810 
01:20	50.4	50.4	50.4	95	49.0	4	7	90	0.01	29.810 
01:25	50.4	50.4	50.4	95	49.0	2	6	90	0.01	29.810 
01:30	50.4	50.4	50.4	95	49.0	1	4	90	0.02	29.794 
01:35	50.4	50.4	50.4	95	49.0	2	4	135	0.01	29.794 
01:40	50.5	50.5	50.5	95	49.1	2	4	112	0.02	29.794 
01:45	50.5	50.5	50.5	95	49.1	3	5	90	0.01	29.779 
01:50	50.5	50.5	50.5	95	49.1	3	6	90	0.01	29.779 
01:55	50.7	50.7	50.7	96	49.6	2	6	112	0.01	29.779 
02:00	50.8	50.8	50.8	96	49.7	2	5	90	0.00	29.762 
02:05	51.0	51.0	51.0	96	49.9	2	5	112	0.02	29.762 
02:10	51.0	51.0	51.0	96	49.9	3	7	90	0.02	29.762 
02:15	51.1	51.1	51.1	96	50.0	2	5	112	0.02	29.746 
02:20	51.3	51.3	51.3	96	50.2	2	6	90	0.02	29.746 
02:25	51.6	51.6	51.6	96	50.5	3	7	112	0.03	29.746 
02:30	51.7	51.7	51.7	96	50.6	2	6	90	0.02	29.738 
02:35	51.9	51.9	51.9	96	50.8	2	7	112	0.03	29.738 
02:40	52.0	52.0	52.0	96	50.9	2	7	90	0.02	29.738 
02:45	52.0	52.0	52.0	96	50.9	2	7	90	0.02	29.731 
02:50	52.2	52.2	52.2	96	51.1	2	5	90	0.01	29.731 
02:55	52.2	52.2	52.2	96	51.1	2	8	90	0.01	29.731 
03:00	52.3	52.3	52.3	96	51.2	2	5	90	0.00	29.719 
03:05	52.3	52.3	52.3	96	51.2	3	7	90	0.01	29.719 
03:10	52.3	52.3	52.3	96	51.2	4	10	90	0.01	29.719 
03:15	52.3	52.3	52.3	96	51.2	3	10	90	0.00	29.707 
03:20	52.5	52.5	52.5	96	51.4	2	5	90	0.02	29.707 
03:25	52.5	52.5	52.5	96	51.4	2	6	90	0.01	29.707 
03:30	52.5	52.5	52.5	96	51.4	2	7	90	0.02	29.696 
03:35	52.5	52.5	52.5	96	51.4	2	5	112	0.01	29.696 
03:40	52.5	52.5	52.5	96	51.4	2	5	90	0.01	29.696 
03:45	52.5	52.5	52.5	96	51.4	2	5	112	0.00	29.682 
03:50	52.5	52.5	52.5	96	51.4	2	9	112	0.01	29.682 
03:55	52.5	52.5	52.5	96	51.4	1	4	90	0.02	29.682 
04:00	52.5	52.5	52.5	96	51.4	2	8	112	0.02	29.667 
04:05	52.5	52.5	52.5	96	51.4	2	5	135	0.02	29.667 
04:10	52.5	52.5	52.5	96	51.4	2	5	90	0.01	29.667 
04:15	52.5	52.5	52.5	96	51.4	2	6	68	0.01	29.652 
04:20	52.6	52.6	52.6	96	51.5	2	10	90	0.01	29.652 
04:25	52.6	52.6	52.6	96	51.5	1	5	90	0.00	29.652 
04:30	52.6	52.6	52.6	96	51.5	2	6	90	0.00	29.637 
04:35	52.6	52.6	52.6	96	51.5	1	5	90	0.00	29.637 
04:40	52.6	52.6	52.6	96	51.5	1	5	112	0.01	29.637 
04:45	52.6	52.6	52.6	96	51.5	2	5	90	0.00	29.625 
04:50	52.6	52.6	52.6	96	51.5	2	5	90	0.00	29.625 
04:55	52.6	52.6	52.6	96	51.5	1	4	112	0.00	29.625 
05:00	52.6	52.6	52.6	96	51.5	1	5	90	0.01	29.618 
05:05	52.6	52.6	52.6	96	51.5	2	10	90	0.01	29.618 
05:10	52.6	52.6	52.6	96	51.5	1	4	90	0.00	29.618 
05:15	52.6	52.6	52.6	96	51.5	1	4	68	0.01	29.605 
05:20	52.6	52.6	52.6	96	51.5	2	8	90	0.00	29.605 
05:25	52.6	52.6	52.6	96	51.5	2	6	90	0.01	29.605 
05:30	52.8	52.8	52.8	96	51.7	2	5	90	0.00	29.598 
05:35	52.8	52.8	52.8	96	51.7	2	5	90	0.01	29.598 
05:40	52.8	52.8	52.8	96	51.7	2	6	90	0.00	29.598 
05:45	52.8	52.8	52.8	96	51.7	1	7	90	0.00	29.589 
05:50	52.8	52.8	52.8	96	51.7	1	4	112	0.01	29.589 
05:55	52.8	52.8	52.8	96	51.7	1	3	112	0.02	29.589 
06:00	52.9	52.9	52.9	96	51.8	1	4	90	0.02	29.583 
06:05	52.9	52.9	52.9	96	51.8	1	3	90	0.01	29.583 
06:10	52.9	52.9	52.9	96	51.8	1	3	90	0.01	29.583 
06:15	52.9	52.9	52.9	96	51.8	1	4	90	0.02	29.574 
06:20	53.1	53.1	53.1	96	52.0	1	4	90	0.00	29.574 
06:25	53.1	53.1	53.1	96	52.0	1	5	68	0.01	29.574 
06:30	53.2	53.2	53.2	96	52.1	1	5	68	0.01	29.565 
06:35	53.2	53.2	53.2	96	52.1	0	2	68	0.01	29.565 
06:40	53.2	53.2	53.2	96	52.1	1	6	68	0.00	29.565 
06:45	53.3	53.3	53.3	96	52.2	0	3	90	0.00	29.558 
06:50	53.3	53.3	53.3	96	52.2	1	5	90	0.00	29.558 
06:55	53.3	53.3	53.3	96	52.2	1	5	90	0.00	29.558 
07:00	53.5	53.5	53.5	96	52.4	2	7	68	0.00	29.545 
07:05	53.5	53.5	53.5	96	52.4	0	3	112	0.00	29.545 
07:10	53.5	53.5	53.5	96	52.4	2	6	112	0.00	29.545 
07:15	53.5	53.5	53.5	96	52.4	1	4	112	0.01	29.532 
07:20	53.6	53.6	53.6	96	52.5	1	6	112	0.01	29.532 
07:25	53.6	53.6	53.6	96	52.5	1	5	112	0.00	29.532 
07:30	53.8	53.8	53.8	96	52.7	2	7	112	0.00	29.526 
07:35	53.8	53.8	53.8	96	52.7	2	8	90	0.00	29.526 
07:40	53.9	53.9	53.9	96	52.8	2	7	112	0.00	29.526 
07:45	53.9	53.9	53.9	96	52.8	2	6	90	0.02	29.513 
07:50	53.9	53.9	53.9	96	52.8	2	7	112	0.01	29.513 
07:55	54.1	54.1	54.1	96	53.0	2	7	112	0.01	29.513 
08:00	54.1	54.1	54.1	96	53.0	2	7	112	0.01	29.511 
08:05	54.2	54.2	54.2	96	53.1	2	7	90	0.00	29.511 
08:10	54.2	54.2	54.2	96	53.1	1	9	112	0.00	29.511 
08:15	54.4	54.4	54.4	96	53.3	1	5	90	0.00	29.507 
08:20	54.4	54.4	54.4	96	53.3	1	9	90	0.00	29.507 
08:25	54.4	54.4	54.4	96	53.3	1	6	90	0.00	29.507 
08:30	54.5	54.5	54.5	96	53.4	1	4	135	0.00	29.511 
08:35	54.5	54.5	54.5	96	53.4	2	9	112	0.00	29.511 
08:40	54.5	54.5	54.5	96	53.4	1	4	112	0.00	29.511 
08:45	54.7	54.7	54.7	96	53.6	0	2	112	0.00	29.505 
08:50	54.7	54.7	54.7	96	53.6	1	6	112	0.00	29.505 
08:55	54.7	54.7	54.7	96	53.6	1	6	90	0.00	29.505 
09:00	54.8	54.8	54.8	96	53.7	1	5	90	0.01	29.497 
09:05	54.8	54.8	54.8	96	53.7	1	5	90	0.00	29.497 
09:10	54.8	54.8	54.8	96	53.7	1	5	90	0.00	29.497 
09:15	55.0	55.0	55.0	96	53.9	0	3	90	0.00	29.490 
09:20	55.0	55.0	55.0	96	53.9	0	1	90	0.00	29.490 
09:25	55.0	55.0	55.0	96	53.9	0	4	90	0.00	29.490 
09:30	55.0	55.0	55.0	96	53.9	0	3	338	0.01	29.498 
09:35	55.1	55.1	55.1	96	54.0	1	4	112	0.00	29.498 
09:40	55.1	55.1	55.1	96	54.0	1	3	90	0.00	29.498 
09:45	55.1	55.1	55.1	96	54.0	1	3	90	0.00	29.493 
09:50	55.3	55.3	55.3	96	54.2	1	3	90	0.00	29.493 
09:55	55.4	55.4	55.4	96	54.3	1	5	90	0.00	29.493 
10:00	55.4	55.4	55.4	96	54.3	1	5	90	0.00	29.494 
10:05	55.6	55.6	55.6	96	54.5	0	3	135	0.00	29.494 
10:10	55.6	55.6	55.6	96	54.5	1	3	112	0.00	29.494 
10:15	55.6	55.6	55.6	96	54.5	1	4	90	0.00	29.485 
10:20	55.7	55.7	55.7	96	54.6	1	6	90	0.00	29.485 
10:25	55.9	55.9	55.9	96	54.8	1	3	90	0.00	29.485 
10:30	56.0	56.0	56.0	96	54.9	0	4	90	0.00	29.478 
10:35	56.2	56.2	56.2	96	55.1	1	3	90	0.01	29.478 
10:40	56.3	56.3	56.3	96	55.2	0	3	0	0.00	29.478 
10:45	56.5	56.5	56.5	96	55.4	0	2	0	0.00	29.472 
10:50	56.6	56.6	56.6	96	55.5	0	3	0	0.00	29.472 
10:55	56.7	56.7	56.7	96	55.6	0	1	112	0.00	29.472 
11:00	56.7	56.7	56.7	96	55.6	0	3	112	0.00	29.462 
11:05	56.9	56.9	56.9	96	55.8	0	1	248	0.00	29.462 
11:10	57.0	57.0	57.0	96	55.9	0	4	248	0.00	29.462 
11:15	57.2	57.2	57.2	96	56.1	0	1	112	0.00	29.461 
11:20	57.3	57.3	57.3	96	56.2	0	2	248	0.00	29.461 
11:25	57.3	57.3	57.3	96	56.2	0	4	68	0.00	29.461 
11:30	57.5	57.5	57.5	96	56.4	0	1	68	0.00	29.452 
11:35	57.5	57.5	57.5	96	56.4	0	3	68	0.00	29.452 
11:40	57.6	57.6	57.6	96	56.5	0	3	68	0.00	29.452 
11:45	57.6	57.6	57.6	96	56.5	0	2	68	0.02	29.448 
11:50	57.6	57.6	57.6	96	56.5	0	1	68	0.02	29.448 
11:55	57.8	57.8	57.8	96	56.7	0	5	112	0.00	29.448 
12:00	58.0	58.0	58.0	96	56.9	0	3	112	0.00	29.447 
12:05	58.0	58.0	58.0	96	56.9	1	3	112	0.00	29.447 
12:10	58.3	58.3	58.3	96	57.2	0	4	45	0.00	29.447 
12:15	58.6	58.6	58.6	96	57.5	0	3	338	0.00	29.445 
12:20	58.7	58.7	58.7	96	57.6	0	2	338	0.00	29.445 
12:25	58.7	58.7	58.7	96	57.6	0	1	338	0.00	29.445 
12:30	58.7	58.7	58.7	96	57.6	0	2	338	0.00	29.444 
12:35	58.7	58.7	58.7	96	57.6	1	7	90	0.00	29.444 
12:40	58.6	58.6	58.6	96	57.5	0	3	90	0.00	29.444 
12:45	58.6	58.6	58.6	96	57.5	1	4	248	0.00	29.435 
12:50	58.7	58.7	58.7	96	57.6	1	3	248	0.00	29.435 
12:55	58.7	58.7	58.7	96	57.6	0	1	248	0.00	29.435 
13:00	58.7	58.7	58.7	96	57.6	0	2	248	0.00	29.438 
13:05	58.7	58.7	58.7	96	57.6	0	3	248	0.00	29.438 
13:10	58.7	58.7	58.7	96	57.6	1	4	248	0.00	29.438 
13:15	58.9	58.9	58.9	96	57.8	1	4	248	0.00	29.438 
13:20	58.9	58.9	58.9	96	57.8	0	3	248	0.00	29.438 
13:25	58.7	58.7	58.7	96	57.6	1	4	248	0.00	29.438 
13:30	58.7	58.7	58.7	96	57.6	1	4	248	0.00	29.432 
13:35	58.7	58.7	58.7	96	57.6	0	3	248	0.00	29.432 
13:40	58.9	58.9	58.9	96	57.8	0	2	248	0.00	29.432 
13:45	59.0	59.0	59.0	96	57.9	0	3	248	0.00	29.428 
13:50	59.2	59.2	59.2	96	58.1	1	6	248	0.00	29.428 
13:55	59.6	59.6	59.6	96	58.5	0	3	248	0.00	29.428 
14:00	59.8	59.8	59.8	96	58.7	1	3	248	0.00	29.424 
14:05	60.1	60.1	60.1	96	59.0	0	2	202	0.00	29.424 
14:10	60.1	60.1	60.1	96	59.0	1	4	248	0.00	29.424 
14:15	60.1	60.1	60.1	96	59.0	1	4	248	0.00	29.414 
14:20	59.9	59.9	59.9	96	58.8	1	4	248	0.00	29.414 
14:25	59.9	59.9	59.9	95	58.5	1	5	248	0.00	29.414 
14:30	59.9	59.9	59.9	95	58.5	1	3	270	0.00	29.415 
14:35	59.9	59.9	59.9	95	58.5	1	5	248	0.00	29.415 
14:40	59.9	59.9	59.9	95	58.5	1	4	248	0.00	29.415 
14:45	59.9	59.9	59.9	95	58.5	0	3	248	0.00	29.412 
14:50	59.8	59.8	59.8	95	58.4	1	4	248	0.00	29.412 
14:55	59.9	59.9	59.9	95	58.5	1	5	248	0.00	29.412 
15:00	59.9	59.9	59.9	94	58.2	1	5	248	0.00	29.409 
15:05	59.9	59.9	59.9	95	58.5	0	3	248	0.00	29.409 
15:10	60.2	60.2	60.2	94	58.5	0	2	248	0.00	29.409 
15:15	60.4	60.4	60.4	94	58.7	1	3	248	0.00	29.401 
15:20	60.5	60.5	60.5	94	58.8	0	2	248	0.00	29.401 
15:25	60.5	60.5	60.5	94	58.8	1	4	248	0.00	29.401 
15:30	60.7	60.7	60.7	93	58.7	1	3	248	0.00	29.393 
15:35	61.0	61.0	61.0	93	59.0	1	5	248	0.00	29.393 
15:40	61.0	61.0	61.0	92	58.7	1	4	248	0.00	29.393 
15:45	60.9	60.9	60.9	91	58.3	2	5	248	0.00	29.390 
15:50	60.9	60.9	60.9	90	57.9	2	6	248	0.00	29.390 
15:55	60.9	60.9	60.9	90	57.9	1	4	248	0.01	29.390 
16:00	60.9	60.9	60.9	90	57.9	1	3	248	0.00	29.392 
16:05	60.9	60.9	60.9	89	57.6	1	5	270	0.00	29.392 
16:10	60.9	60.9	60.9	88	57.3	1	5	225	0.00	29.392 
16:15	60.9	60.9	60.9	88	57.3	2	9	225	0.00	29.395 
16:20	61.0	61.0	61.0	88	57.4	2	7	248	0.00	29.395 
16:25	61.0	61.0	61.0	87	57.1	2	7	248	0.00	29.395 
16:30	60.7	60.7	60.7	86	56.5	2	8	248	0.00	29.408 
16:35	59.5	59.5	59.5	87	55.6	4	7	248	0.01	29.408 
16:40	58.9	58.9	58.9	88	55.3	2	8	248	0.00	29.408 
16:45	58.7	58.7	58.7	90	55.8	2	5	248	0.01	29.415 
16:50	58.6	58.6	58.6	90	55.7	3	7	248	0.00	29.415 
16:55	58.6	58.6	58.6	90	55.7	1	4	248	0.00	29.415 
17:00	58.7	58.7	58.7	91	56.1	1	3	248	0.00	29.422 
17:05	58.7	58.7	58.7	91	56.1	1	5	248	0.00	29.422 
17:10	58.6	58.6	58.6	90	55.7	2	7	292	0.00	29.422 
17:15	58.4	58.4	58.4	90	55.5	1	5	248	0.00	29.426 
17:20	58.3	58.3	58.3	89	55.1	2	7	248	0.00	29.426 
17:25	58.3	58.3	58.3	88	54.8	1	4	248	0.00	29.426 
17:30	58.1	58.1	58.1	88	54.6	1	5	248	0.00	29.439 
17:35	57.6	57.6	57.6	88	54.1	4	11	248	0.00	29.439 
17:40	57.3	57.3	57.3	88	53.8	2	6	248	0.00	29.439 
17:45	57.0	57.0	57.0	88	53.5	4	10	270	0.00	29.445 
17:50	56.7	56.7	56.7	88	53.2	4	11	248	0.00	29.445 
17:55	56.0	56.0	56.0	88	52.5	5	10	270	0.00	29.445 
18:00	55.7	55.7	55.7	89	52.5	2	4	270	0.00	29.457 
18:05	55.6	55.6	55.6	90	52.7	2	5	270	0.00	29.457 
18:10	55.3	55.3	55.3	90	52.4	2	5	292	0.00	29.457 
18:15	55.1	55.1	55.1	90	52.2	3	7	270	0.00	29.462 
18:20	54.8	54.8	54.8	89	51.6	4	11	248	0.00	29.462 
18:25	54.7	54.7	54.7	88	51.2	4	9	248	0.00	29.462 
18:30	54.7	54.7	54.7	87	50.9	3	10	270	0.00	29.475 
18:35	54.5	54.5	54.5	87	50.7	2	7	248	0.00	29.475 
18:40	54.4	54.4	54.4	87	50.6	2	7	248	0.00	29.475 
18:45	54.2	54.2	54.2	86	50.1	2	6	270	0.00	29.480 
18:50	54.1	54.1	54.1	86	50.0	1	4	270	0.00	29.480 
18:55	53.9	53.9	53.9	85	49.5	3	6	248	0.00	29.480 
19:00	53.9	53.9	53.9	84	49.2	2	6	270	0.00	29.487 
19:05	53.8	53.8	53.8	84	49.1	2	5	270	0.00	29.487 
19:10	53.8	53.8	53.8	84	49.1	1	3	270	0.00	29.487 
19:15	53.6	53.6	53.6	84	48.9	2	4	270	0.00	29.487 
19:20	53.6	53.6	53.6	84	48.9	2	5	270	0.00	29.487 
19:25	53.6	53.6	53.6	84	48.9	1	3	270	0.00	29.487 
19:30	53.6	53.6	53.6	84	48.9	2	9	248	0.00	29.493 
19:35	53.6	53.6	53.6	84	48.9	2	6	270	0.00	29.493 
19:40	53.6	53.6	53.6	84	48.9	2	6	248	0.00	29.493 
19:45	53.6	53.6	53.6	83	48.6	2	5	248	0.00	29.494 
19:50	53.6	53.6	53.6	83	48.6	1	4	248	0.00	29.494 
19:55	53.6	53.6	53.6	83	48.6	0	2	248	0.00	29.494 
20:00	53.6	53.6	53.6	83	48.6	2	9	248	0.00	29.495 
20:05	53.6	53.6	53.6	84	48.9	1	4	248	0.00	29.495 
20:10	53.6	53.6	53.6	84	48.9	1	5	270	0.00	29.495 
20:15	53.5	53.5	53.5	84	48.8	2	5	248	0.00	29.503 
20:20	53.3	53.3	53.3	84	48.6	1	7	248	0.00	29.503 
20:25	53.2	53.2	53.2	84	48.5	2	5	248	0.00	29.503 
20:30	53.1	53.1	53.1	85	48.7	1	5	248	0.00	29.505 
20:35	53.1	53.1	53.1	85	48.7	2	6	270	0.00	29.505 
20:40	52.9	52.9	52.9	84	48.2	3	7	270	0.00	29.505 
20:45	52.9	52.9	52.9	84	48.2	2	5	270	0.00	29.505 
20:50	52.9	52.9	52.9	84	48.2	1	4	270	0.00	29.505 
20:55	52.9	52.9	52.9	84	48.2	2	6	248	0.00	29.505 
21:00	52.9	52.9	52.9	84	48.2	1	4	248	0.00	29.506 
21:05	52.9	52.9	52.9	84	48.2	0	2	248	0.00	29.506 
21:10	52.9	52.9	52.9	85	48.5	0	2	248	0.00	29.506 
21:15	52.8	52.8	52.8	85	48.4	1	3	248	0.00	29.497 
21:20	52.5	52.5	52.5	85	48.1	1	7	248	0.00	29.497 
21:25	52.3	52.3	52.3	85	47.9	1	3	292	0.00	29.497 
21:30	52.3	52.3	52.3	84	47.6	1	4	292	0.00	29.501 
21:35	52.3	52.3	52.3	84	47.6	1	5	248	0.00	29.501 
21:40	52.3	52.3	52.3	84	47.6	1	7	270	0.00	29.501 
21:45	52.2	52.2	52.2	84	47.5	1	3	270	0.00	29.501 
21:50	52.2	52.2	52.2	84	47.5	1	4	270	0.00	29.501 
21:55	52.2	52.2	52.2	84	47.5	0	3	248	0.00	29.501 
22:00	52.2	52.2	52.2	84	47.5	1	3	248	0.00	29.497 
22:05	52.2	52.2	52.2	84	47.5	0	3	248	0.00	29.497 
22:10	52.0	52.0	52.0	84	47.3	1	5	248	0.00	29.497 
22:15	52.0	52.0	52.0	84	47.3	1	5	248	0.00	29.492 
22:20	52.0	52.0	52.0	84	47.3	1	4	248	0.00	29.492 
22:25	51.9	51.9	51.9	83	46.9	1	5	248	0.00	29.492 
22:30	51.9	51.9	51.9	83	46.9	1	5	248	0.00	29.493 
22:35	51.9	51.9	51.9	84	47.2	1	5	248	0.00	29.493 
22:40	51.7	51.7	51.7	84	47.0	0	3	248	0.00	29.493 
22:45	51.7	51.7	51.7	84	47.0	1	3	292	0.00	29.494 
22:50	51.7	51.7	51.7	85	47.3	1	6	248	0.00	29.494 
22:55	51.9	51.9	51.9	85	47.5	1	6	248	0.00	29.494 
23:00	51.9	51.9	51.9	84	47.2	1	3	248	0.00	29.493 
23:05	51.1	51.1	51.1	82	45.8	4	11	270	0.01	29.493 
23:10	48.6	46.6	48.6	82	43.4	5	10	270	0.01	29.493 
23:15	47.1	44.8	47.1	84	42.5	5	10	292	0.00	29.532 
23:20	46.4	44.7	46.4	86	42.4	4	7	270	0.00	29.532 
23:25	46.0	44.2	46.0	86	42.0	4	9	292	0.00	29.532 
23:30	45.8	44.0	45.8	86	41.9	4	7	270	0.00	29.542 
23:35	45.8	44.0	45.8	86	41.9	4	9	270	0.00	29.542 
23:40	45.7	45.7	45.7	86	41.8	2	5	270	0.00	29.542 
23:45	45.7	45.7	45.7	86	41.8	3	10	270	0.00	29.547 
23:50	45.5	43.7	45.5	85	41.3	4	10	270	0.00	29.547 
23:55	45.4	42.8	45.4	85	41.2	5	15	270	0.00	29.547 

CoCoRaHS
IN-AL-39
A2 Web Hosting
Creative Commons License
GoDaddy
search engine by freefind advanced

loaded 2018-11-13 17:20:04 • last modified 2010-11-18 10:43:29
Privacy PolicyDisclaimer
• wx.awcolley.com is powered by PmWiki v.2002016 •
• all content (unless otherwise noted) © 2018 A W Colley